sensor_id;sensor_type;location;lat;lon;timestamp;P1;durP1;ratioP1;P2;durP2;ratioP2
61673;SDS011;47573;43.832;5.974;2023-11-19T00:03:48;773.25;;;615.85;;
61673;SDS011;47573;43.832;5.974;2023-11-19T00:10:31;769.70;;;616.38;;
61673;SDS011;47573;43.832;5.974;2023-11-19T00:17:12;785.07;;;629.97;;
61673;SDS011;47573;43.832;5.974;2023-11-19T00:23:53;784.53;;;625.63;;
61673;SDS011;47573;43.832;5.974;2023-11-19T00:30:35;779.42;;;616.75;;
61673;SDS011;47573;43.832;5.974;2023-11-19T00:37:15;777.13;;;620.65;;
61673;SDS011;47573;43.832;5.974;2023-11-19T00:43:56;774.05;;;622.38;;
61673;SDS011;47573;43.832;5.974;2023-11-19T00:50:38;780.22;;;619.97;;
61673;SDS011;47573;43.832;5.974;2023-11-19T00:57:22;766.13;;;609.08;;
61673;SDS011;47573;43.832;5.974;2023-11-19T01:04:04;754.25;;;600.58;;
61673;SDS011;47573;43.832;5.974;2023-11-19T01:10:47;751.38;;;591.28;;
61673;SDS011;47573;43.832;5.974;2023-11-19T01:17:27;735.40;;;575.40;;
61673;SDS011;47573;43.832;5.974;2023-11-19T01:24:08;735.75;;;572.78;;
61673;SDS011;47573;43.832;5.974;2023-11-19T01:30:51;718.72;;;565.80;;
61673;SDS011;47573;43.832;5.974;2023-11-19T01:37:32;702.10;;;548.13;;
61673;SDS011;47573;43.832;5.974;2023-11-19T01:44:14;687.50;;;534.08;;
61673;SDS011;47573;43.832;5.974;2023-11-19T01:50:57;677.53;;;525.63;;
61673;SDS011;47573;43.832;5.974;2023-11-19T01:57:37;667.73;;;515.87;;
61673;SDS011;47573;43.832;5.974;2023-11-19T02:04:21;672.72;;;516.92;;
61673;SDS011;47573;43.832;5.974;2023-11-19T02:11:04;657.47;;;509.38;;
61673;SDS011;47573;43.832;5.974;2023-11-19T02:17:46;651.38;;;498.55;;
61673;SDS011;47573;43.832;5.974;2023-11-19T02:24:27;633.10;;;481.60;;
61673;SDS011;47573;43.832;5.974;2023-11-19T02:31:12;633.28;;;475.02;;
61673;SDS011;47573;43.832;5.974;2023-11-19T02:37:54;620.75;;;459.80;;
61673;SDS011;47573;43.832;5.974;2023-11-19T02:44:34;609.88;;;457.25;;
61673;SDS011;47573;43.832;5.974;2023-11-19T02:51:17;596.35;;;436.80;;
61673;SDS011;47573;43.832;5.974;2023-11-19T02:57:58;591.30;;;436.55;;
61673;SDS011;47573;43.832;5.974;2023-11-19T03:04:40;588.75;;;428.33;;
61673;SDS011;47573;43.832;5.974;2023-11-19T03:11:24;571.73;;;411.27;;
61673;SDS011;47573;43.832;5.974;2023-11-19T03:18:04;564.83;;;404.45;;
61673;SDS011;47573;43.832;5.974;2023-11-19T03:24:45;561.63;;;397.60;;
61673;SDS011;47573;43.832;5.974;2023-11-19T03:31:27;557.83;;;390.38;;
61673;SDS011;47573;43.832;5.974;2023-11-19T03:38:08;545.65;;;382.02;;
61673;SDS011;47573;43.832;5.974;2023-11-19T03:44:49;544.40;;;378.35;;
61673;SDS011;47573;43.832;5.974;2023-11-19T03:51:32;527.50;;;364.30;;
61673;SDS011;47573;43.832;5.974;2023-11-19T03:58:12;521.15;;;360.55;;
61673;SDS011;47573;43.832;5.974;2023-11-19T04:04:54;518.40;;;356.13;;
61673;SDS011;47573;43.832;5.974;2023-11-19T04:11:37;508.23;;;352.80;;
61673;SDS011;47573;43.832;5.974;2023-11-19T04:18:17;499.08;;;339.65;;
61673;SDS011;47573;43.832;5.974;2023-11-19T04:24:58;497.70;;;335.20;;
61673;SDS011;47573;43.832;5.974;2023-11-19T04:31:40;497.55;;;332.02;;
61673;SDS011;47573;43.832;5.974;2023-11-19T04:38:21;486.90;;;325.20;;
61673;SDS011;47573;43.832;5.974;2023-11-19T04:45:01;475.83;;;318.75;;
61673;SDS011;47573;43.832;5.974;2023-11-19T04:51:44;472.58;;;314.42;;
61673;SDS011;47573;43.832;5.974;2023-11-19T04:58:28;464.33;;;305.02;;
61673;SDS011;47573;43.832;5.974;2023-11-19T05:05:09;449.70;;;295.87;;
61673;SDS011;47573;43.832;5.974;2023-11-19T05:11:51;438.67;;;289.00;;
61673;SDS011;47573;43.832;5.974;2023-11-19T05:18:32;431.77;;;287.58;;
61673;SDS011;47573;43.832;5.974;2023-11-19T05:25:13;423.73;;;278.73;;
61673;SDS011;47573;43.832;5.974;2023-11-19T05:31:55;414.90;;;269.65;;
61673;SDS011;47573;43.832;5.974;2023-11-19T05:38:36;406.90;;;265.08;;
61673;SDS011;47573;43.832;5.974;2023-11-19T05:45:17;396.60;;;259.52;;
61673;SDS011;47573;43.832;5.974;2023-11-19T05:51:59;411.67;;;265.20;;
61673;SDS011;47573;43.832;5.974;2023-11-19T05:58:41;360.65;;;237.48;;
61673;SDS011;47573;43.832;5.974;2023-11-19T06:05:24;335.80;;;186.85;;
61673;SDS011;47573;43.832;5.974;2023-11-19T06:12:07;212.60;;;118.40;;
61673;SDS011;47573;43.832;5.974;2023-11-19T06:18:48;163.80;;;96.57;;
61673;SDS011;47573;43.832;5.974;2023-11-19T06:25:28;212.82;;;127.78;;
61673;SDS011;47573;43.832;5.974;2023-11-19T06:32:10;279.60;;;161.88;;
61673;SDS011;47573;43.832;5.974;2023-11-19T06:38:52;316.13;;;177.33;;
61673;SDS011;47573;43.832;5.974;2023-11-19T06:45:32;408.52;;;216.35;;
61673;SDS011;47573;43.832;5.974;2023-11-19T06:52:15;330.25;;;180.10;;
61673;SDS011;47573;43.832;5.974;2023-11-19T06:58:56;273.02;;;154.77;;
61673;SDS011;47573;43.832;5.974;2023-11-19T07:05:37;437.45;;;217.15;;
61673;SDS011;47573;43.832;5.974;2023-11-19T07:12:20;895.20;;;436.90;;
61673;SDS011;47573;43.832;5.974;2023-11-19T07:19:00;285.48;;;155.45;;
61673;SDS011;47573;43.832;5.974;2023-11-19T07:25:41;250.60;;;145.20;;
61673;SDS011;47573;43.832;5.974;2023-11-19T07:32:24;174.57;;;103.97;;
61673;SDS011;47573;43.832;5.974;2023-11-19T07:39:04;109.45;;;65.15;;
61673;SDS011;47573;43.832;5.974;2023-11-19T07:45:45;132.57;;;68.18;;
61673;SDS011;47573;43.832;5.974;2023-11-19T07:52:27;465.73;;;210.38;;
61673;SDS011;47573;43.832;5.974;2023-11-19T07:59:09;96.70;;;55.17;;
61673;SDS011;47573;43.832;5.974;2023-11-19T08:05:50;114.07;;;60.58;;
61673;SDS011;47573;43.832;5.974;2023-11-19T08:12:32;91.95;;;56.03;;
61673;SDS011;47573;43.832;5.974;2023-11-19T08:19:15;77.15;;;46.53;;
61673;SDS011;47573;43.832;5.974;2023-11-19T08:25:56;72.07;;;44.83;;
61673;SDS011;47573;43.832;5.974;2023-11-19T08:32:38;85.43;;;51.55;;
61673;SDS011;47573;43.832;5.974;2023-11-19T08:39:19;89.55;;;53.88;;
61673;SDS011;47573;43.832;5.974;2023-11-19T08:46:01;86.10;;;52.27;;
61673;SDS011;47573;43.832;5.974;2023-11-19T08:52:43;85.55;;;51.15;;
61673;SDS011;47573;43.832;5.974;2023-11-19T08:59:25;81.43;;;49.97;;
61673;SDS011;47573;43.832;5.974;2023-11-19T09:06:05;84.45;;;51.13;;
61673;SDS011;47573;43.832;5.974;2023-11-19T09:12:48;80.72;;;50.08;;
61673;SDS011;47573;43.832;5.974;2023-11-19T09:19:31;75.35;;;49.13;;
61673;SDS011;47573;43.832;5.974;2023-11-19T09:26:12;75.32;;;48.90;;
61673;SDS011;47573;43.832;5.974;2023-11-19T09:32:55;76.85;;;49.88;;
61673;SDS011;47573;43.832;5.974;2023-11-19T09:39:35;81.10;;;50.30;;
61673;SDS011;47573;43.832;5.974;2023-11-19T09:46:16;78.10;;;47.78;;
61673;SDS011;47573;43.832;5.974;2023-11-19T09:52:58;76.40;;;48.15;;
61673;SDS011;47573;43.832;5.974;2023-11-19T09:59:39;76.65;;;49.03;;
61673;SDS011;47573;43.832;5.974;2023-11-19T10:06:20;75.47;;;48.67;;
61673;SDS011;47573;43.832;5.974;2023-11-19T10:13:03;74.43;;;47.55;;
61673;SDS011;47573;43.832;5.974;2023-11-19T10:19:44;73.70;;;47.27;;
61673;SDS011;47573;43.832;5.974;2023-11-19T10:26:25;71.10;;;46.35;;
61673;SDS011;47573;43.832;5.974;2023-11-19T10:33:09;69.40;;;46.15;;
61673;SDS011;47573;43.832;5.974;2023-11-19T10:39:51;72.88;;;46.50;;
61673;SDS011;47573;43.832;5.974;2023-11-19T10:46:37;68.32;;;45.13;;
61673;SDS011;47573;43.832;5.974;2023-11-19T10:53:21;67.78;;;44.55;;
61673;SDS011;47573;43.832;5.974;2023-11-19T11:00:06;68.85;;;43.22;;
61673;SDS011;47573;43.832;5.974;2023-11-19T11:06:53;62.53;;;40.78;;
61673;SDS011;47573;43.832;5.974;2023-11-19T11:13:36;64.20;;;41.60;;
61673;SDS011;47573;43.832;5.974;2023-11-19T11:20:21;62.00;;;40.78;;
61673;SDS011;47573;43.832;5.974;2023-11-19T11:34:50;58.72;;;38.08;;
61673;SDS011;47573;43.832;5.974;2023-11-19T11:41:40;68.05;;;39.95;;
61673;SDS011;47573;43.832;5.974;2023-11-19T11:48:21;70.43;;;40.72;;
61673;SDS011;47573;43.832;5.974;2023-11-19T11:55:08;60.05;;;35.22;;
61673;SDS011;47573;43.832;5.974;2023-11-19T12:01:57;65.82;;;37.33;;
61673;SDS011;47573;43.832;5.974;2023-11-19T12:08:38;64.25;;;35.53;;
61673;SDS011;47573;43.832;5.974;2023-11-19T12:15:20;67.43;;;35.45;;
61673;SDS011;47573;43.832;5.974;2023-11-19T12:22:08;47.42;;;29.65;;
61673;SDS011;47573;43.832;5.974;2023-11-19T12:28:57;40.30;;;27.52;;
61673;SDS011;47573;43.832;5.974;2023-11-19T12:35:40;37.42;;;25.40;;
61673;SDS011;47573;43.832;5.974;2023-11-19T12:42:21;35.15;;;23.48;;
61673;SDS011;47573;43.832;5.974;2023-11-19T12:49:01;34.67;;;23.13;;
61673;SDS011;47573;43.832;5.974;2023-11-19T12:55:43;30.52;;;21.20;;
61673;SDS011;47573;43.832;5.974;2023-11-19T13:02:33;31.25;;;20.42;;
61673;SDS011;47573;43.832;5.974;2023-11-19T13:09:25;27.92;;;19.50;;
61673;SDS011;47573;43.832;5.974;2023-11-19T13:16:08;26.48;;;17.52;;
61673;SDS011;47573;43.832;5.974;2023-11-19T13:22:55;23.07;;;16.30;;
61673;SDS011;47573;43.832;5.974;2023-11-19T13:29:37;27.58;;;16.88;;
61673;SDS011;47573;43.832;5.974;2023-11-19T13:36:19;22.55;;;15.32;;
61673;SDS011;47573;43.832;5.974;2023-11-19T13:42:59;23.17;;;15.43;;
61673;SDS011;47573;43.832;5.974;2023-11-19T13:49:40;20.33;;;14.38;;
61673;SDS011;47573;43.832;5.974;2023-11-19T13:56:22;18.90;;;12.63;;
61673;SDS011;47573;43.832;5.974;2023-11-19T14:03:03;18.67;;;13.02;;
61673;SDS011;47573;43.832;5.974;2023-11-19T14:09:43;18.40;;;12.00;;
61673;SDS011;47573;43.832;5.974;2023-11-19T14:16:27;16.80;;;11.25;;
61673;SDS011;47573;43.832;5.974;2023-11-19T14:23:08;13.23;;;9.27;;
61673;SDS011;47573;43.832;5.974;2023-11-19T14:29:49;10.15;;;7.10;;
61673;SDS011;47573;43.832;5.974;2023-11-19T14:36:32;11.95;;;8.18;;
61673;SDS011;47573;43.832;5.974;2023-11-19T14:43:13;11.30;;;7.57;;
61673;SDS011;47573;43.832;5.974;2023-11-19T14:49:55;11.50;;;8.17;;
61673;SDS011;47573;43.832;5.974;2023-11-19T14:56:37;11.70;;;8.07;;
61673;SDS011;47573;43.832;5.974;2023-11-19T15:03:19;9.90;;;6.78;;
61673;SDS011;47573;43.832;5.974;2023-11-19T15:09:59;11.32;;;6.43;;
61673;SDS011;47573;43.832;5.974;2023-11-19T15:16:42;9.75;;;5.60;;
61673;SDS011;47573;43.832;5.974;2023-11-19T15:23:23;9.67;;;6.53;;
61673;SDS011;47573;43.832;5.974;2023-11-19T15:30:04;10.02;;;6.65;;
61673;SDS011;47573;43.832;5.974;2023-11-19T15:36:47;8.73;;;5.97;;
61673;SDS011;47573;43.832;5.974;2023-11-19T15:43:28;8.67;;;6.20;;
61673;SDS011;47573;43.832;5.974;2023-11-19T15:50:09;8.00;;;5.80;;
61673;SDS011;47573;43.832;5.974;2023-11-19T15:56:52;9.30;;;6.40;;
61673;SDS011;47573;43.832;5.974;2023-11-19T16:03:32;9.02;;;6.32;;
61673;SDS011;47573;43.832;5.974;2023-11-19T16:10:13;10.13;;;6.65;;
61673;SDS011;47573;43.832;5.974;2023-11-19T16:16:56;9.80;;;6.43;;
61673;SDS011;47573;43.832;5.974;2023-11-19T16:23:36;10.35;;;6.10;;
61673;SDS011;47573;43.832;5.974;2023-11-19T16:30:17;21.00;;;9.40;;
61673;SDS011;47573;43.832;5.974;2023-11-19T16:37:01;10.30;;;6.33;;
61673;SDS011;47573;43.832;5.974;2023-11-19T16:43:41;24.60;;;13.73;;
61673;SDS011;47573;43.832;5.974;2023-11-19T16:50:22;47.80;;;30.13;;
61673;SDS011;47573;43.832;5.974;2023-11-19T16:57:04;77.38;;;44.88;;
61673;SDS011;47573;43.832;5.974;2023-11-19T17:03:45;79.50;;;47.30;;
61673;SDS011;47573;43.832;5.974;2023-11-19T17:10:25;93.40;;;56.90;;
61673;SDS011;47573;43.832;5.974;2023-11-19T17:17:07;140.48;;;82.47;;
61673;SDS011;47573;43.832;5.974;2023-11-19T17:23:48;147.13;;;90.10;;
61673;SDS011;47573;43.832;5.974;2023-11-19T17:30:29;174.68;;;107.45;;
61673;SDS011;47573;43.832;5.974;2023-11-19T17:37:11;209.40;;;129.65;;
61673;SDS011;47573;43.832;5.974;2023-11-19T17:43:51;237.10;;;140.60;;
61673;SDS011;47573;43.832;5.974;2023-11-19T17:50:32;260.85;;;162.93;;
61673;SDS011;47573;43.832;5.974;2023-11-19T17:57:14;269.42;;;170.20;;
61673;SDS011;47573;43.832;5.974;2023-11-19T18:03:55;281.07;;;179.93;;
61673;SDS011;47573;43.832;5.974;2023-11-19T18:10:36;316.50;;;204.93;;
61673;SDS011;47573;43.832;5.974;2023-11-19T18:17:18;321.98;;;215.70;;
61673;SDS011;47573;43.832;5.974;2023-11-19T18:23:59;354.45;;;238.77;;
61673;SDS011;47573;43.832;5.974;2023-11-19T18:30:39;375.23;;;255.63;;
61673;SDS011;47573;43.832;5.974;2023-11-19T18:37:21;370.15;;;255.02;;
61673;SDS011;47573;43.832;5.974;2023-11-19T18:44:02;399.05;;;274.63;;
61673;SDS011;47573;43.832;5.974;2023-11-19T18:50:42;418.98;;;288.23;;
61673;SDS011;47573;43.832;5.974;2023-11-19T18:57:24;429.85;;;296.73;;
61673;SDS011;47573;43.832;5.974;2023-11-19T19:04:05;448.50;;;305.80;;
61673;SDS011;47573;43.832;5.974;2023-11-19T19:10:49;472.50;;;325.13;;
61673;SDS011;47573;43.832;5.974;2023-11-19T19:17:31;449.27;;;307.20;;
61673;SDS011;47573;43.832;5.974;2023-11-19T19:24:12;428.92;;;296.80;;
61673;SDS011;47573;43.832;5.974;2023-11-19T19:30:54;416.50;;;290.80;;
61673;SDS011;47573;43.832;5.974;2023-11-19T19:37:36;415.48;;;289.27;;
61673;SDS011;47573;43.832;5.974;2023-11-19T19:44:17;418.07;;;292.50;;
61673;SDS011;47573;43.832;5.974;2023-11-19T19:50:59;528.07;;;369.37;;
61673;SDS011;47573;43.832;5.974;2023-11-19T19:57:43;537.97;;;373.37;;
61673;SDS011;47573;43.832;5.974;2023-11-19T20:04:24;546.70;;;382.00;;
61673;SDS011;47573;43.832;5.974;2023-11-19T20:11:06;553.55;;;403.95;;
61673;SDS011;47573;43.832;5.974;2023-11-19T20:17:51;568.75;;;415.50;;
61673;SDS011;47573;43.832;5.974;2023-11-19T20:24:32;573.67;;;423.93;;
61673;SDS011;47573;43.832;5.974;2023-11-19T20:31:13;564.65;;;411.27;;
61673;SDS011;47573;43.832;5.974;2023-11-19T20:37:55;570.80;;;420.55;;
61673;SDS011;47573;43.832;5.974;2023-11-19T20:44:36;592.42;;;441.63;;
61673;SDS011;47573;43.832;5.974;2023-11-19T20:51:16;592.20;;;446.30;;
61673;SDS011;47573;43.832;5.974;2023-11-19T20:57:59;584.40;;;433.52;;
61673;SDS011;47573;43.832;5.974;2023-11-19T21:04:40;579.97;;;431.15;;
61673;SDS011;47573;43.832;5.974;2023-11-19T21:18:05;571.10;;;417.73;;
61673;SDS011;47573;43.832;5.974;2023-11-19T21:24:46;596.37;;;450.43;;
61673;SDS011;47573;43.832;5.974;2023-11-19T21:38:10;618.80;;;471.63;;
61673;SDS011;47573;43.832;5.974;2023-11-19T21:44:51;625.80;;;478.65;;
61673;SDS011;47573;43.832;5.974;2023-11-19T21:51:32;652.53;;;508.27;;
61673;SDS011;47573;43.832;5.974;2023-11-19T21:58:13;649.65;;;511.80;;
61673;SDS011;47573;43.832;5.974;2023-11-19T22:04:54;643.22;;;503.80;;
61673;SDS011;47573;43.832;5.974;2023-11-19T22:11:35;645.80;;;508.35;;
61673;SDS011;47573;43.832;5.974;2023-11-19T22:18:17;659.60;;;519.30;;
61673;SDS011;47573;43.832;5.974;2023-11-19T22:24:57;646.10;;;508.03;;
61673;SDS011;47573;43.832;5.974;2023-11-19T22:31:38;644.10;;;505.52;;
61673;SDS011;47573;43.832;5.974;2023-11-19T22:38:20;641.97;;;500.13;;
61673;SDS011;47573;43.832;5.974;2023-11-19T22:45:01;634.43;;;493.20;;
61673;SDS011;47573;43.832;5.974;2023-11-19T22:51:42;643.60;;;503.95;;
61673;SDS011;47573;43.832;5.974;2023-11-19T22:58:24;646.45;;;507.30;;
61673;SDS011;47573;43.832;5.974;2023-11-19T23:05:05;645.20;;;508.25;;
61673;SDS011;47573;43.832;5.974;2023-11-19T23:11:47;645.20;;;496.27;;
61673;SDS011;47573;43.832;5.974;2023-11-19T23:18:29;633.97;;;498.67;;
61673;SDS011;47573;43.832;5.974;2023-11-19T23:25:10;633.20;;;494.03;;
61673;SDS011;47573;43.832;5.974;2023-11-19T23:31:51;640.30;;;497.20;;
61673;SDS011;47573;43.832;5.974;2023-11-19T23:38:33;660.00;;;517.03;;
61673;SDS011;47573;43.832;5.974;2023-11-19T23:45:13;665.40;;;522.72;;
61673;SDS011;47573;43.832;5.974;2023-11-19T23:51:54;677.55;;;526.80;;
61673;SDS011;47573;43.832;5.974;2023-11-19T23:58:39;686.92;;;535.90;;
